Etusivu
METAR-TAF:

METAR-TAF

Lentoasemat :

Fairford, Englanti

Leveyspiiri: 51-41N, Pituuspiiri: 001-47W, korkeus merenpinnasta: 87 m

Tämänhetkinen sää

Tämä raportti tehtiin 45 minuuttia sitten, kello 07.56 UTC
Tuuli 9 kn etelästä
Lämpötila 6°C
Kosteus 100%
Ilmanpaine 1009 hPa
Näkyvyys 10 km tai enemmän
selkeää

METAR: EGVA 260756Z AUTO 19009KT 9999 CLR 06/06 A2980 RMK AO2 SLP097 T00640061 $

Aika: 08:41 (08:41 UTC)


TAF: puuttuu

Säähavainnot ja -ennusteet yli 4000 lentoasemalta (METAR- ja TAF-raportit).

Käytössä olevat sääasemat on merkitty karttaan keltaisilla ja punaisilla pisteillä.

Aseta hiiri pisteen päälle nähdäksesi sääaseman nimen.

Klikkaa sitten nähdäksesi säähavainnot ja -ennusteet.

Kartan vaihtaminen: klikkaa mustalla rastilla varustettuja vihreitä pisteitä, niin voit zoomata sisään; viivalla varustettua vihreää pistettä, niin voit zoomata ulos tai vihreitä nuolia, niin pääset viereisille kartoille.


METAR-TAF: